sensor_id;sensor_type;location;lat;lon;timestamp;pressure;altitude;pressure_sealevel;temperature
47484;BMP280;54076;50.322;18.650;2022-10-16T00:00:02;99282.73;;;15.07
47484;BMP280;54076;50.322;18.650;2022-10-16T00:05:04;99275.98;;;14.98
47484;BMP280;54076;50.322;18.650;2022-10-16T00:10:06;99274.48;;;14.96
47484;BMP280;54076;50.322;18.650;2022-10-16T00:15:07;99276.91;;;14.93
47484;BMP280;54076;50.322;18.650;2022-10-16T00:20:09;99272.77;;;15.00
47484;BMP280;54076;50.322;18.650;2022-10-16T00:25:10;99270.44;;;14.97
47484;BMP280;54076;50.322;18.650;2022-10-16T00:30:10;99272.02;;;15.15
47484;BMP280;54076;50.322;18.650;2022-10-16T00:35:12;99270.27;;;15.08
47484;BMP280;54076;50.322;18.650;2022-10-16T00:40:13;99274.08;;;15.01
47484;BMP280;54076;50.322;18.650;2022-10-16T00:45:14;99272.02;;;15.01
47484;BMP280;54076;50.322;18.650;2022-10-16T00:50:30;99268.55;;;15.06
47484;BMP280;54076;50.322;18.650;2022-10-16T00:55:32;99271.53;;;14.95
47484;BMP280;54076;50.322;18.650;2022-10-16T01:00:33;99271.64;;;14.90
47484;BMP280;54076;50.322;18.650;2022-10-16T01:05:45;99271.45;;;14.99
47484;BMP280;54076;50.322;18.650;2022-10-16T01:10:56;99274.92;;;14.94
47484;BMP280;54076;50.322;18.650;2022-10-16T01:16:17;99266.80;;;14.92
47484;BMP280;54076;50.322;18.650;2022-10-16T01:21:28;99269.89;;;14.87
47484;BMP280;54076;50.322;18.650;2022-10-16T01:31:36;99266.29;;;14.81
47484;BMP280;54076;50.322;18.650;2022-10-16T01:36:45;99272.27;;;14.70
47484;BMP280;54076;50.322;18.650;2022-10-16T01:41:54;99274.58;;;14.65
47484;BMP280;54076;50.322;18.650;2022-10-16T01:46:59;99274.30;;;14.80
47484;BMP280;54076;50.322;18.650;2022-10-16T01:52:06;99274.64;;;14.76
47484;BMP280;54076;50.322;18.650;2022-10-16T01:57:10;99281.47;;;14.81
47484;BMP280;54076;50.322;18.650;2022-10-16T02:02:12;99287.00;;;14.74
47484;BMP280;54076;50.322;18.650;2022-10-16T02:07:15;99297.46;;;14.75
47484;BMP280;54076;50.322;18.650;2022-10-16T02:12:32;99302.36;;;14.89
47484;BMP280;54076;50.322;18.650;2022-10-16T02:17:35;99304.70;;;14.79
47484;BMP280;54076;50.322;18.650;2022-10-16T02:22:46;99303.29;;;14.84
47484;BMP280;54076;50.322;18.650;2022-10-16T02:28:08;99305.40;;;14.85
47484;BMP280;54076;50.322;18.650;2022-10-16T02:33:14;99296.10;;;14.82
47484;BMP280;54076;50.322;18.650;2022-10-16T02:38:17;99290.41;;;14.65
47484;BMP280;54076;50.322;18.650;2022-10-16T02:43:19;99291.27;;;14.68
47484;BMP280;54076;50.322;18.650;2022-10-16T02:48:20;99295.14;;;14.60
47484;BMP280;54076;50.322;18.650;2022-10-16T02:53:21;99295.67;;;14.64
47484;BMP280;54076;50.322;18.650;2022-10-16T02:58:22;99304.16;;;14.62
47484;BMP280;54076;50.322;18.650;2022-10-16T03:03:22;99308.58;;;14.76
47484;BMP280;54076;50.322;18.650;2022-10-16T03:08:23;99308.96;;;14.73
47484;BMP280;54076;50.322;18.650;2022-10-16T03:13:25;99314.12;;;14.71
47484;BMP280;54076;50.322;18.650;2022-10-16T03:18:26;99314.50;;;14.82
47484;BMP280;54076;50.322;18.650;2022-10-16T03:23:27;99315.25;;;14.84
47484;BMP280;54076;50.322;18.650;2022-10-16T03:28:28;99321.58;;;14.93
47484;BMP280;54076;50.322;18.650;2022-10-16T03:33:29;99328.30;;;14.97
47484;BMP280;54076;50.322;18.650;2022-10-16T03:38:30;99333.39;;;14.97
47484;BMP280;54076;50.322;18.650;2022-10-16T03:43:31;99336.78;;;15.05
47484;BMP280;54076;50.322;18.650;2022-10-16T03:48:32;99335.05;;;15.11
47484;BMP280;54076;50.322;18.650;2022-10-16T03:53:33;99331.44;;;15.09
47484;BMP280;54076;50.322;18.650;2022-10-16T03:58:34;99326.57;;;15.05
47484;BMP280;54076;50.322;18.650;2022-10-16T04:03:35;99339.73;;;15.06
47484;BMP280;54076;50.322;18.650;2022-10-16T04:08:35;99348.96;;;15.15
47484;BMP280;54076;50.322;18.650;2022-10-16T04:13:37;99350.35;;;15.19
47484;BMP280;54076;50.322;18.650;2022-10-16T04:18:38;99347.46;;;15.21
47484;BMP280;54076;50.322;18.650;2022-10-16T04:23:39;99349.27;;;15.17
47484;BMP280;54076;50.322;18.650;2022-10-16T04:28:40;99351.84;;;15.11
47484;BMP280;54076;50.322;18.650;2022-10-16T04:33:44;99338.23;;;15.00
47484;BMP280;54076;50.322;18.650;2022-10-16T04:38:44;99347.98;;;14.99
47484;BMP280;54076;50.322;18.650;2022-10-16T04:43:45;99355.30;;;14.95
47484;BMP280;54076;50.322;18.650;2022-10-16T04:48:46;99362.45;;;15.07
47484;BMP280;54076;50.322;18.650;2022-10-16T04:53:47;99363.34;;;14.96
47484;BMP280;54076;50.322;18.650;2022-10-16T04:58:48;99373.39;;;14.89
47484;BMP280;54076;50.322;18.650;2022-10-16T05:03:49;99380.87;;;14.90
47484;BMP280;54076;50.322;18.650;2022-10-16T05:08:50;99382.52;;;14.93
47484;BMP280;54076;50.322;18.650;2022-10-16T05:13:51;99388.73;;;14.87
47484;BMP280;54076;50.322;18.650;2022-10-16T05:18:52;99394.66;;;14.86
47484;BMP280;54076;50.322;18.650;2022-10-16T05:23:53;99393.46;;;14.90
47484;BMP280;54076;50.322;18.650;2022-10-16T05:28:55;99389.20;;;14.78
47484;BMP280;54076;50.322;18.650;2022-10-16T05:34:00;99394.34;;;14.81
47484;BMP280;54076;50.322;18.650;2022-10-16T05:39:01;99397.59;;;14.73
47484;BMP280;54076;50.322;18.650;2022-10-16T05:44:05;99406.42;;;14.58
47484;BMP280;54076;50.322;18.650;2022-10-16T05:49:07;99415.27;;;14.55
47484;BMP280;54076;50.322;18.650;2022-10-16T05:54:08;99417.19;;;14.59
47484;BMP280;54076;50.322;18.650;2022-10-16T05:59:09;99425.58;;;14.54
47484;BMP280;54076;50.322;18.650;2022-10-16T06:04:10;99425.73;;;14.52
47484;BMP280;54076;50.322;18.650;2022-10-16T06:09:11;99433.64;;;14.55
47484;BMP280;54076;50.322;18.650;2022-10-16T06:14:12;99444.14;;;14.69
47484;BMP280;54076;50.322;18.650;2022-10-16T06:19:13;99449.45;;;14.77
47484;BMP280;54076;50.322;18.650;2022-10-16T06:24:14;99455.05;;;14.84
47484;BMP280;54076;50.322;18.650;2022-10-16T06:29:15;99466.64;;;14.86
47484;BMP280;54076;50.322;18.650;2022-10-16T06:34:16;99467.86;;;14.73
47484;BMP280;54076;50.322;18.650;2022-10-16T06:39:17;99474.47;;;14.81
47484;BMP280;54076;50.322;18.650;2022-10-16T06:44:18;99479.64;;;14.91
47484;BMP280;54076;50.322;18.650;2022-10-16T06:49:19;99475.63;;;14.98
47484;BMP280;54076;50.322;18.650;2022-10-16T06:54:23;99474.23;;;15.28
47484;BMP280;54076;50.322;18.650;2022-10-16T06:59:24;99471.43;;;15.74
47484;BMP280;54076;50.322;18.650;2022-10-16T07:04:25;99470.29;;;15.77
47484;BMP280;54076;50.322;18.650;2022-10-16T07:09:25;99481.60;;;16.09
47484;BMP280;54076;50.322;18.650;2022-10-16T07:14:27;99485.13;;;16.34
47484;BMP280;54076;50.322;18.650;2022-10-16T07:19:28;99487.32;;;16.39
47484;BMP280;54076;50.322;18.650;2022-10-16T07:24:29;99491.69;;;16.44
47484;BMP280;54076;50.322;18.650;2022-10-16T07:29:30;99496.13;;;16.53
47484;BMP280;54076;50.322;18.650;2022-10-16T07:34:31;99505.08;;;16.76
47484;BMP280;54076;50.322;18.650;2022-10-16T07:39:32;99499.54;;;16.86
47484;BMP280;54076;50.322;18.650;2022-10-16T07:44:33;99507.77;;;17.00
47484;BMP280;54076;50.322;18.650;2022-10-16T07:49:34;99510.66;;;17.19
47484;BMP280;54076;50.322;18.650;2022-10-16T07:54:34;99508.80;;;17.30
47484;BMP280;54076;50.322;18.650;2022-10-16T07:59:35;99508.27;;;17.37
47484;BMP280;54076;50.322;18.650;2022-10-16T08:04:36;99505.73;;;17.27
47484;BMP280;54076;50.322;18.650;2022-10-16T08:09:37;99512.91;;;17.39
47484;BMP280;54076;50.322;18.650;2022-10-16T08:14:38;99515.48;;;17.57
47484;BMP280;54076;50.322;18.650;2022-10-16T08:19:39;99513.08;;;17.68
47484;BMP280;54076;50.322;18.650;2022-10-16T08:24:40;99521.64;;;17.99
47484;BMP280;54076;50.322;18.650;2022-10-16T08:29:41;99512.44;;;17.96
47484;BMP280;54076;50.322;18.650;2022-10-16T08:34:42;99510.92;;;17.96
47484;BMP280;54076;50.322;18.650;2022-10-16T08:39:43;99508.05;;;18.01
47484;BMP280;54076;50.322;18.650;2022-10-16T08:50:29;99517.90;;;18.29
47484;BMP280;54076;50.322;18.650;2022-10-16T08:55:41;99516.76;;;18.45
47484;BMP280;54076;50.322;18.650;2022-10-16T09:00:47;99517.18;;;18.71
47484;BMP280;54076;50.322;18.650;2022-10-16T09:16:44;99523.98;;;19.23
47484;BMP280;54076;50.322;18.650;2022-10-16T09:21:47;99528.13;;;19.35
47484;BMP280;54076;50.322;18.650;2022-10-16T09:26:50;99537.11;;;19.59
47484;BMP280;54076;50.322;18.650;2022-10-16T09:31:52;99539.65;;;19.66
47484;BMP280;54076;50.322;18.650;2022-10-16T09:36:57;99538.02;;;19.70
47484;BMP280;54076;50.322;18.650;2022-10-16T09:42:00;99544.23;;;19.75
47484;BMP280;54076;50.322;18.650;2022-10-16T09:47:25;99538.41;;;19.58
47484;BMP280;54076;50.322;18.650;2022-10-16T09:52:26;99544.17;;;19.38
47484;BMP280;54076;50.322;18.650;2022-10-16T09:57:28;99542.03;;;19.74
47484;BMP280;54076;50.322;18.650;2022-10-16T10:02:35;99549.25;;;19.72
47484;BMP280;54076;50.322;18.650;2022-10-16T10:07:43;99548.20;;;19.36
47484;BMP280;54076;50.322;18.650;2022-10-16T10:12:45;99552.89;;;19.39
47484;BMP280;54076;50.322;18.650;2022-10-16T10:17:57;99555.17;;;19.41
47484;BMP280;54076;50.322;18.650;2022-10-16T10:22:58;99552.77;;;19.44
47484;BMP280;54076;50.322;18.650;2022-10-16T10:38:59;99549.22;;;19.42
47484;BMP280;54076;50.322;18.650;2022-10-16T10:55:36;99559.70;;;19.82
47484;BMP280;54076;50.322;18.650;2022-10-16T11:06:20;99550.66;;;20.88
47484;BMP280;54076;50.322;18.650;2022-10-16T11:11:54;99559.09;;;20.74
47484;BMP280;54076;50.322;18.650;2022-10-16T11:17:19;99561.50;;;20.79
47484;BMP280;54076;50.322;18.650;2022-10-16T11:22:38;99559.27;;;21.30
47484;BMP280;54076;50.322;18.650;2022-10-16T11:27:52;99567.58;;;21.25
47484;BMP280;54076;50.322;18.650;2022-10-16T11:43:28;99578.61;;;22.77
47484;BMP280;54076;50.322;18.650;2022-10-16T11:48:56;99570.55;;;24.57
47484;BMP280;54076;50.322;18.650;2022-10-16T11:54:27;99565.34;;;25.13
47484;BMP280;54076;50.322;18.650;2022-10-16T11:59:48;99579.74;;;24.07
47484;BMP280;54076;50.322;18.650;2022-10-16T12:10:35;99587.83;;;24.23
47484;BMP280;54076;50.322;18.650;2022-10-16T12:15:37;99600.77;;;24.59
47484;BMP280;54076;50.322;18.650;2022-10-16T12:20:38;99589.25;;;24.85
47484;BMP280;54076;50.322;18.650;2022-10-16T12:25:57;99576.98;;;25.69
47484;BMP280;54076;50.322;18.650;2022-10-16T12:31:08;99576.80;;;25.24
47484;BMP280;54076;50.322;18.650;2022-10-16T12:36:16;99560.00;;;24.43
47484;BMP280;54076;50.322;18.650;2022-10-16T12:41:35;99559.95;;;23.16
47484;BMP280;54076;50.322;18.650;2022-10-16T12:46:40;99568.82;;;23.19
47484;BMP280;54076;50.322;18.650;2022-10-16T12:51:42;99573.25;;;22.03
47484;BMP280;54076;50.322;18.650;2022-10-16T13:24:35;99585.33;;;21.24
47484;BMP280;54076;50.322;18.650;2022-10-16T13:29:38;99588.05;;;20.93
47484;BMP280;54076;50.322;18.650;2022-10-16T13:34:48;99580.14;;;20.85
47484;BMP280;54076;50.322;18.650;2022-10-16T13:39:49;99574.00;;;20.77
47484;BMP280;54076;50.322;18.650;2022-10-16T13:44:54;99571.02;;;20.68
47484;BMP280;54076;50.322;18.650;2022-10-16T13:50:02;99571.20;;;20.83
47484;BMP280;54076;50.322;18.650;2022-10-16T13:55:15;99567.52;;;21.21
47484;BMP280;54076;50.322;18.650;2022-10-16T14:00:26;99578.85;;;21.23
47484;BMP280;54076;50.322;18.650;2022-10-16T14:05:31;99594.57;;;21.17
47484;BMP280;54076;50.322;18.650;2022-10-16T14:10:32;99602.87;;;21.14
47484;BMP280;54076;50.322;18.650;2022-10-16T14:15:36;99611.02;;;21.15
47484;BMP280;54076;50.322;18.650;2022-10-16T14:20:37;99603.05;;;21.17
47484;BMP280;54076;50.322;18.650;2022-10-16T14:25:38;99602.29;;;20.99
47484;BMP280;54076;50.322;18.650;2022-10-16T14:30:58;99610.86;;;20.94
47484;BMP280;54076;50.322;18.650;2022-10-16T14:36:14;99608.27;;;20.63
47484;BMP280;54076;50.322;18.650;2022-10-16T14:41:21;99622.25;;;20.54
47484;BMP280;54076;50.322;18.650;2022-10-16T14:46:36;99632.98;;;20.71
47484;BMP280;54076;50.322;18.650;2022-10-16T14:51:40;99632.52;;;20.60
47484;BMP280;54076;50.322;18.650;2022-10-16T14:56:47;99619.59;;;20.65
47484;BMP280;54076;50.322;18.650;2022-10-16T15:01:49;99624.86;;;20.62
47484;BMP280;54076;50.322;18.650;2022-10-16T15:06:50;99634.27;;;20.43
47484;BMP280;54076;50.322;18.650;2022-10-16T15:11:51;99628.25;;;20.22
47484;BMP280;54076;50.322;18.650;2022-10-16T15:16:52;99630.30;;;20.12
47484;BMP280;54076;50.322;18.650;2022-10-16T15:21:53;99638.23;;;20.00
47484;BMP280;54076;50.322;18.650;2022-10-16T15:26:54;99640.30;;;19.88
47484;BMP280;54076;50.322;18.650;2022-10-16T15:31:54;99638.49;;;19.69
47484;BMP280;54076;50.322;18.650;2022-10-16T15:36:55;99650.48;;;19.53
47484;BMP280;54076;50.322;18.650;2022-10-16T15:41:58;99659.66;;;19.50
47484;BMP280;54076;50.322;18.650;2022-10-16T15:46:59;99656.59;;;19.38
47484;BMP280;54076;50.322;18.650;2022-10-16T15:52:03;99651.90;;;19.27
47484;BMP280;54076;50.322;18.650;2022-10-16T15:57:03;99646.63;;;19.16
47484;BMP280;54076;50.322;18.650;2022-10-16T16:02:05;99648.04;;;19.05
47484;BMP280;54076;50.322;18.650;2022-10-16T16:07:06;99661.92;;;18.97
47484;BMP280;54076;50.322;18.650;2022-10-16T16:12:10;99668.46;;;18.89
47484;BMP280;54076;50.322;18.650;2022-10-16T16:17:11;99672.66;;;18.77
47484;BMP280;54076;50.322;18.650;2022-10-16T16:22:12;99674.83;;;18.64
47484;BMP280;54076;50.322;18.650;2022-10-16T16:27:13;99682.70;;;18.62
47484;BMP280;54076;50.322;18.650;2022-10-16T16:32:14;99701.20;;;18.59
47484;BMP280;54076;50.322;18.650;2022-10-16T16:37:15;99703.75;;;18.48
47484;BMP280;54076;50.322;18.650;2022-10-16T16:42:16;99720.16;;;18.42
47484;BMP280;54076;50.322;18.650;2022-10-16T16:47:17;99727.14;;;18.44
47484;BMP280;54076;50.322;18.650;2022-10-16T16:52:18;99730.79;;;18.31
47484;BMP280;54076;50.322;18.650;2022-10-16T16:57:20;99735.05;;;18.31
47484;BMP280;54076;50.322;18.650;2022-10-16T17:02:21;99744.27;;;18.29
47484;BMP280;54076;50.322;18.650;2022-10-16T17:07:22;99753.19;;;18.30
47484;BMP280;54076;50.322;18.650;2022-10-16T17:12:24;99765.65;;;18.33
47484;BMP280;54076;50.322;18.650;2022-10-16T17:17:25;99768.64;;;18.33
47484;BMP280;54076;50.322;18.650;2022-10-16T17:22:26;99773.11;;;18.24
47484;BMP280;54076;50.322;18.650;2022-10-16T17:27:27;99779.17;;;18.27
47484;BMP280;54076;50.322;18.650;2022-10-16T17:32:28;99782.52;;;18.22
47484;BMP280;54076;50.322;18.650;2022-10-16T17:37:28;99798.50;;;18.13
47484;BMP280;54076;50.322;18.650;2022-10-16T17:42:29;99799.48;;;18.06
47484;BMP280;54076;50.322;18.650;2022-10-16T17:47:30;99801.79;;;18.07
47484;BMP280;54076;50.322;18.650;2022-10-16T17:52:31;99801.88;;;18.05
47484;BMP280;54076;50.322;18.650;2022-10-16T17:57:32;99802.45;;;18.08
47484;BMP280;54076;50.322;18.650;2022-10-16T18:02:33;99810.13;;;17.96
47484;BMP280;54076;50.322;18.650;2022-10-16T18:07:34;99813.95;;;17.91
47484;BMP280;54076;50.322;18.650;2022-10-16T18:12:35;99822.96;;;17.92
47484;BMP280;54076;50.322;18.650;2022-10-16T18:17:36;99828.67;;;17.74
47484;BMP280;54076;50.322;18.650;2022-10-16T18:22:38;99832.58;;;17.77
47484;BMP280;54076;50.322;18.650;2022-10-16T18:27:39;99847.66;;;17.76
47484;BMP280;54076;50.322;18.650;2022-10-16T18:32:40;99848.02;;;17.70
47484;BMP280;54076;50.322;18.650;2022-10-16T18:37:41;99846.34;;;17.58
47484;BMP280;54076;50.322;18.650;2022-10-16T18:42:42;99852.56;;;17.61
47484;BMP280;54076;50.322;18.650;2022-10-16T18:47:43;99857.02;;;17.49
47484;BMP280;54076;50.322;18.650;2022-10-16T18:52:47;99865.88;;;17.58
47484;BMP280;54076;50.322;18.650;2022-10-16T18:57:48;99865.88;;;17.46
47484;BMP280;54076;50.322;18.650;2022-10-16T19:02:49;99871.83;;;17.56
47484;BMP280;54076;50.322;18.650;2022-10-16T19:07:50;99872.91;;;17.50
47484;BMP280;54076;50.322;18.650;2022-10-16T19:12:52;99882.84;;;17.52
47484;BMP280;54076;50.322;18.650;2022-10-16T19:17:53;99892.05;;;17.50
47484;BMP280;54076;50.322;18.650;2022-10-16T19:22:54;99904.84;;;17.47
47484;BMP280;54076;50.322;18.650;2022-10-16T19:27:58;99909.67;;;17.46
47484;BMP280;54076;50.322;18.650;2022-10-16T19:33:01;99915.83;;;17.45
47484;BMP280;54076;50.322;18.650;2022-10-16T19:38:02;99915.86;;;17.39
47484;BMP280;54076;50.322;18.650;2022-10-16T19:43:03;99920.91;;;17.33
47484;BMP280;54076;50.322;18.650;2022-10-16T19:48:04;99916.18;;;17.38
47484;BMP280;54076;50.322;18.650;2022-10-16T19:53:05;99908.96;;;17.38
47484;BMP280;54076;50.322;18.650;2022-10-16T19:58:06;99922.63;;;17.33
47484;BMP280;54076;50.322;18.650;2022-10-16T20:03:07;99923.84;;;17.40
47484;BMP280;54076;50.322;18.650;2022-10-16T20:08:08;99926.52;;;17.47
47484;BMP280;54076;50.322;18.650;2022-10-16T20:13:09;99931.92;;;17.42
47484;BMP280;54076;50.322;18.650;2022-10-16T20:18:10;99935.88;;;17.44
47484;BMP280;54076;50.322;18.650;2022-10-16T20:23:11;99936.50;;;17.49
47484;BMP280;54076;50.322;18.650;2022-10-16T20:28:16;99942.08;;;17.41
47484;BMP280;54076;50.322;18.650;2022-10-16T20:33:18;99954.78;;;17.44
47484;BMP280;54076;50.322;18.650;2022-10-16T20:38:19;99955.55;;;17.37
47484;BMP280;54076;50.322;18.650;2022-10-16T20:43:19;99961.66;;;17.29
47484;BMP280;54076;50.322;18.650;2022-10-16T20:48:20;99970.39;;;17.28
47484;BMP280;54076;50.322;18.650;2022-10-16T20:53:21;99978.17;;;17.22
47484;BMP280;54076;50.322;18.650;2022-10-16T20:58:22;99982.66;;;17.26
47484;BMP280;54076;50.322;18.650;2022-10-16T21:03:23;99993.00;;;17.26
47484;BMP280;54076;50.322;18.650;2022-10-16T21:08:25;100002.71;;;17.26
47484;BMP280;54076;50.322;18.650;2022-10-16T21:13:26;100004.08;;;17.35
47484;BMP280;54076;50.322;18.650;2022-10-16T21:18:27;99999.70;;;17.25
47484;BMP280;54076;50.322;18.650;2022-10-16T21:23:28;100000.55;;;17.23
47484;BMP280;54076;50.322;18.650;2022-10-16T21:28:31;100005.79;;;17.13
47484;BMP280;54076;50.322;18.650;2022-10-16T21:33:32;100010.89;;;17.04
47484;BMP280;54076;50.322;18.650;2022-10-16T21:38:33;100015.15;;;17.05
47484;BMP280;54076;50.322;18.650;2022-10-16T21:43:35;100023.26;;;17.03
47484;BMP280;54076;50.322;18.650;2022-10-16T21:48:36;100029.66;;;16.88
47484;BMP280;54076;50.322;18.650;2022-10-16T21:53:38;100029.73;;;16.81
47484;BMP280;54076;50.322;18.650;2022-10-16T21:58:39;100031.04;;;16.74
47484;BMP280;54076;50.322;18.650;2022-10-16T22:03:41;100032.60;;;16.72
47484;BMP280;54076;50.322;18.650;2022-10-16T22:08:44;100036.41;;;16.72
47484;BMP280;54076;50.322;18.650;2022-10-16T22:13:46;100042.95;;;16.53
47484;BMP280;54076;50.322;18.650;2022-10-16T22:18:47;100048.82;;;16.43
47484;BMP280;54076;50.322;18.650;2022-10-16T22:23:50;100051.79;;;16.49
47484;BMP280;54076;50.322;18.650;2022-10-16T22:28:53;100056.94;;;16.43
47484;BMP280;54076;50.322;18.650;2022-10-16T22:34:00;100055.21;;;16.29
47484;BMP280;54076;50.322;18.650;2022-10-16T22:39:02;100049.67;;;16.20
47484;BMP280;54076;50.322;18.650;2022-10-16T22:44:04;100060.92;;;16.21
47484;BMP280;54076;50.322;18.650;2022-10-16T22:49:04;100065.07;;;16.15
47484;BMP280;54076;50.322;18.650;2022-10-16T22:54:05;100067.13;;;16.09
47484;BMP280;54076;50.322;18.650;2022-10-16T22:59:08;100067.26;;;16.01
47484;BMP280;54076;50.322;18.650;2022-10-16T23:04:09;100071.11;;;15.91
47484;BMP280;54076;50.322;18.650;2022-10-16T23:09:10;100075.97;;;15.71
47484;BMP280;54076;50.322;18.650;2022-10-16T23:14:11;100074.11;;;15.78
47484;BMP280;54076;50.322;18.650;2022-10-16T23:19:12;100073.17;;;15.76
47484;BMP280;54076;50.322;18.650;2022-10-16T23:24:13;100071.85;;;15.72
47484;BMP280;54076;50.322;18.650;2022-10-16T23:29:14;100074.14;;;15.73
47484;BMP280;54076;50.322;18.650;2022-10-16T23:34:15;100074.21;;;15.60
47484;BMP280;54076;50.322;18.650;2022-10-16T23:39:16;100076.13;;;15.43
47484;BMP280;54076;50.322;18.650;2022-10-16T23:44:17;100080.48;;;15.64
47484;BMP280;54076;50.322;18.650;2022-10-16T23:49:18;100090.10;;;15.55
47484;BMP280;54076;50.322;18.650;2022-10-16T23:54:19;100092.45;;;15.34
47484;BMP280;54076;50.322;18.650;2022-10-16T23:59:20;100094.23;;;15.37
